sensor_id;sensor_type;location;lat;lon;timestamp;P1;durP1;ratioP1;P2;durP2;ratioP2
36271;SDS011;22311;50.084;18.440;2022-11-04T06:46:45;35.77;;;14.37;;
36271;SDS011;22311;50.084;18.440;2022-11-04T06:51:49;37.80;;;14.93;;
36271;SDS011;22311;50.084;18.440;2022-11-04T07:03:04;31.47;;;16.40;;
36271;SDS011;22311;50.084;18.440;2022-11-04T07:08:09;40.87;;;17.47;;
36271;SDS011;22311;50.084;18.440;2022-11-04T07:19:20;53.20;;;20.47;;
36271;SDS011;22311;50.084;18.440;2022-11-04T07:24:24;63.87;;;26.00;;
36271;SDS011;22311;50.084;18.440;2022-11-04T07:41:03;47.80;;;24.47;;
36271;SDS011;22311;50.084;18.440;2022-11-04T07:52:11;45.50;;;20.98;;
36271;SDS011;22311;50.084;18.440;2022-11-04T08:03:42;65.80;;;24.27;;
36271;SDS011;22311;50.084;18.440;2022-11-04T08:08:46;71.50;;;29.00;;
36271;SDS011;22311;50.084;18.440;2022-11-04T08:13:50;65.63;;;23.17;;
36271;SDS011;22311;50.084;18.440;2022-11-04T08:25:27;61.83;;;22.00;;
36271;SDS011;22311;50.084;18.440;2022-11-04T08:30:32;55.53;;;24.87;;
36271;SDS011;22311;50.084;18.440;2022-11-04T08:35:35;51.47;;;23.00;;
36271;SDS011;22311;50.084;18.440;2022-11-04T08:46:41;41.73;;;20.23;;
36271;SDS011;22311;50.084;18.440;2022-11-04T08:51:47;36.47;;;17.73;;
36271;SDS011;22311;50.084;18.440;2022-11-04T09:15:52;31.03;;;15.43;;
36271;SDS011;22311;50.084;18.440;2022-11-04T09:21:07;33.87;;;15.23;;
36271;SDS011;22311;50.084;18.440;2022-11-04T09:27:10;31.70;;;13.93;;
36271;SDS011;22311;50.084;18.440;2022-11-04T09:32:15;29.87;;;14.80;;
36271;SDS011;22311;50.084;18.440;2022-11-04T09:37:18;34.03;;;18.33;;
36271;SDS011;22311;50.084;18.440;2022-11-04T09:42:29;44.00;;;18.70;;
36271;SDS011;22311;50.084;18.440;2022-11-04T09:47:43;88.23;;;29.70;;
36271;SDS011;22311;50.084;18.440;2022-11-04T09:52:49;171.77;;;55.27;;
36271;SDS011;22311;50.084;18.440;2022-11-04T09:57:56;86.40;;;33.13;;
36271;SDS011;22311;50.084;18.440;2022-11-04T10:03:06;66.90;;;28.23;;
36271;SDS011;22311;50.084;18.440;2022-11-04T10:08:25;77.20;;;31.13;;
36271;SDS011;22311;50.084;18.440;2022-11-04T10:13:51;57.37;;;25.33;;
36271;SDS011;22311;50.084;18.440;2022-11-04T10:19:05;33.47;;;17.97;;
36271;SDS011;22311;50.084;18.440;2022-11-04T10:24:18;38.27;;;18.27;;
36271;SDS011;22311;50.084;18.440;2022-11-04T10:29:26;48.60;;;23.27;;
36271;SDS011;22311;50.084;18.440;2022-11-04T10:40:19;37.30;;;21.40;;
36271;SDS011;22311;50.084;18.440;2022-11-04T10:45:30;35.43;;;19.53;;
36271;SDS011;22311;50.084;18.440;2022-11-04T10:50:50;39.67;;;21.17;;
36271;SDS011;22311;50.084;18.440;2022-11-04T10:56:05;46.43;;;20.63;;
36271;SDS011;22311;50.084;18.440;2022-11-04T11:01:21;36.90;;;18.03;;
36271;SDS011;22311;50.084;18.440;2022-11-04T11:06:27;32.30;;;17.57;;
36271;SDS011;22311;50.084;18.440;2022-11-04T11:11:37;29.03;;;16.10;;
36271;SDS011;22311;50.084;18.440;2022-11-04T11:16:42;42.63;;;23.20;;
36271;SDS011;22311;50.084;18.440;2022-11-04T11:21:47;33.70;;;15.17;;
36271;SDS011;22311;50.084;18.440;2022-11-04T11:26:53;38.10;;;17.83;;
36271;SDS011;22311;50.084;18.440;2022-11-04T11:31:58;33.83;;;18.07;;
36271;SDS011;22311;50.084;18.440;2022-11-04T11:37:02;56.27;;;25.77;;
36271;SDS011;22311;50.084;18.440;2022-11-04T11:42:10;32.03;;;18.07;;
36271;SDS011;22311;50.084;18.440;2022-11-04T11:47:17;30.57;;;16.10;;
36271;SDS011;22311;50.084;18.440;2022-11-04T12:05:36;33.73;;;17.20;;
36271;SDS011;22311;50.084;18.440;2022-11-04T12:11:05;22.87;;;14.93;;
36271;SDS011;22311;50.084;18.440;2022-11-04T12:16:15;28.10;;;16.03;;
36271;SDS011;22311;50.084;18.440;2022-11-04T12:21:25;33.20;;;19.10;;
36271;SDS011;22311;50.084;18.440;2022-11-04T12:26:38;34.90;;;17.73;;
36271;SDS011;22311;50.084;18.440;2022-11-04T12:31:49;36.13;;;16.67;;
36271;SDS011;22311;50.084;18.440;2022-11-04T12:37:05;33.63;;;18.20;;
36271;SDS011;22311;50.084;18.440;2022-11-04T12:42:16;38.17;;;22.20;;
36271;SDS011;22311;50.084;18.440;2022-11-04T12:47:32;34.60;;;21.07;;
36271;SDS011;22311;50.084;18.440;2022-11-04T12:52:42;40.27;;;21.93;;
36271;SDS011;22311;50.084;18.440;2022-11-04T12:57:54;44.63;;;24.80;;
36271;SDS011;22311;50.084;18.440;2022-11-04T13:03:03;31.70;;;19.63;;
36271;SDS011;22311;50.084;18.440;2022-11-04T13:08:17;43.40;;;18.83;;
36271;SDS011;22311;50.084;18.440;2022-11-04T13:13:25;37.57;;;20.83;;
36271;SDS011;22311;50.084;18.440;2022-11-04T13:18:32;37.37;;;20.60;;
36271;SDS011;22311;50.084;18.440;2022-11-04T13:23:40;35.17;;;21.00;;
36271;SDS011;22311;50.084;18.440;2022-11-04T13:28:53;41.20;;;22.03;;
36271;SDS011;22311;50.084;18.440;2022-11-04T13:34:12;37.83;;;21.00;;
36271;SDS011;22311;50.084;18.440;2022-11-04T13:39:26;49.00;;;22.00;;
36271;SDS011;22311;50.084;18.440;2022-11-04T13:44:33;45.73;;;24.87;;
36271;SDS011;22311;50.084;18.440;2022-11-04T13:49:38;56.30;;;29.47;;
36271;SDS011;22311;50.084;18.440;2022-11-04T13:54:45;74.57;;;38.63;;
36271;SDS011;22311;50.084;18.440;2022-11-04T14:00:17;74.73;;;38.90;;
36271;SDS011;22311;50.084;18.440;2022-11-04T14:11:11;70.37;;;36.47;;
36271;SDS011;22311;50.084;18.440;2022-11-04T14:22:03;87.83;;;45.63;;
36271;SDS011;22311;50.084;18.440;2022-11-04T14:27:21;94.37;;;45.60;;
36271;SDS011;22311;50.084;18.440;2022-11-04T14:32:26;135.97;;;51.40;;
36271;SDS011;22311;50.084;18.440;2022-11-04T14:37:33;90.23;;;43.60;;
36271;SDS011;22311;50.084;18.440;2022-11-04T14:42:43;120.43;;;57.13;;
36271;SDS011;22311;50.084;18.440;2022-11-04T14:47:51;106.87;;;48.63;;
36271;SDS011;22311;50.084;18.440;2022-11-04T14:52:55;84.17;;;38.47;;
36271;SDS011;22311;50.084;18.440;2022-11-04T14:58:21;95.30;;;45.57;;
36271;SDS011;22311;50.084;18.440;2022-11-04T15:03:25;187.67;;;89.13;;
36271;SDS011;22311;50.084;18.440;2022-11-04T15:08:50;185.93;;;97.47;;
36271;SDS011;22311;50.084;18.440;2022-11-04T15:13:56;107.67;;;52.50;;
36271;SDS011;22311;50.084;18.440;2022-11-04T15:26:27;110.60;;;55.47;;
36271;SDS011;22311;50.084;18.440;2022-11-04T15:38:08;106.73;;;62.13;;
36271;SDS011;22311;50.084;18.440;2022-11-04T15:43:13;143.53;;;71.90;;
36271;SDS011;22311;50.084;18.440;2022-11-04T15:48:27;113.13;;;59.90;;
36271;SDS011;22311;50.084;18.440;2022-11-04T15:53:33;94.77;;;49.90;;
36271;SDS011;22311;50.084;18.440;2022-11-04T15:58:46;106.40;;;56.10;;
36271;SDS011;22311;50.084;18.440;2022-11-04T16:03:50;134.60;;;64.83;;
36271;SDS011;22311;50.084;18.440;2022-11-04T16:14:29;113.53;;;53.73;;
36271;SDS011;22311;50.084;18.440;2022-11-04T16:19:33;78.27;;;42.90;;
36271;SDS011;22311;50.084;18.440;2022-11-04T16:24:36;69.80;;;35.87;;
36271;SDS011;22311;50.084;18.440;2022-11-04T16:29:43;120.53;;;67.28;;
36271;SDS011;22311;50.084;18.440;2022-11-04T16:34:56;112.83;;;58.33;;
36271;SDS011;22311;50.084;18.440;2022-11-04T16:40:02;153.53;;;77.27;;
36271;SDS011;22311;50.084;18.440;2022-11-04T16:45:16;142.27;;;73.73;;
36271;SDS011;22311;50.084;18.440;2022-11-04T16:50:22;86.73;;;50.77;;
36271;SDS011;22311;50.084;18.440;2022-11-04T16:55:26;115.00;;;60.43;;
36271;SDS011;22311;50.084;18.440;2022-11-04T17:00:33;108.60;;;57.23;;
36271;SDS011;22311;50.084;18.440;2022-11-04T17:05:36;117.43;;;59.80;;
36271;SDS011;22311;50.084;18.440;2022-11-04T17:10:40;127.27;;;62.60;;
36271;SDS011;22311;50.084;18.440;2022-11-04T17:27:42;154.27;;;66.70;;
36271;SDS011;22311;50.084;18.440;2022-11-04T17:32:46;184.50;;;81.90;;
36271;SDS011;22311;50.084;18.440;2022-11-04T17:37:52;192.63;;;83.73;;
36271;SDS011;22311;50.084;18.440;2022-11-04T17:42:56;185.57;;;85.43;;
36271;SDS011;22311;50.084;18.440;2022-11-04T17:49:05;171.50;;;86.50;;
36271;SDS011;22311;50.084;18.440;2022-11-04T17:54:17;177.87;;;87.23;;
36271;SDS011;22311;50.084;18.440;2022-11-04T17:59:22;204.17;;;98.43;;
36271;SDS011;22311;50.084;18.440;2022-11-04T18:04:25;197.57;;;95.70;;
36271;SDS011;22311;50.084;18.440;2022-11-04T18:15:15;174.17;;;91.87;;
36271;SDS011;22311;50.084;18.440;2022-11-04T18:20:19;155.97;;;86.40;;
36271;SDS011;22311;50.084;18.440;2022-11-04T18:25:23;172.23;;;91.13;;
36271;SDS011;22311;50.084;18.440;2022-11-04T18:30:27;192.13;;;98.40;;
36271;SDS011;22311;50.084;18.440;2022-11-04T18:41:35;167.10;;;89.43;;
36271;SDS011;22311;50.084;18.440;2022-11-04T18:46:42;160.83;;;81.83;;
36271;SDS011;22311;50.084;18.440;2022-11-04T18:51:45;165.70;;;78.27;;
36271;SDS011;22311;50.084;18.440;2022-11-04T18:56:49;134.67;;;66.57;;
36271;SDS011;22311;50.084;18.440;2022-11-04T19:08:03;115.40;;;57.87;;
36271;SDS011;22311;50.084;18.440;2022-11-04T19:18:58;80.63;;;41.97;;
36271;SDS011;22311;50.084;18.440;2022-11-04T19:24:10;78.93;;;43.23;;
36271;SDS011;22311;50.084;18.440;2022-11-04T19:35:00;91.23;;;48.37;;
36271;SDS011;22311;50.084;18.440;2022-11-04T19:40:05;126.90;;;67.90;;
36271;SDS011;22311;50.084;18.440;2022-11-04T19:51:14;126.07;;;61.77;;
36271;SDS011;22311;50.084;18.440;2022-11-04T19:56:22;112.90;;;58.00;;
36271;SDS011;22311;50.084;18.440;2022-11-04T20:02:02;175.37;;;90.87;;
36271;SDS011;22311;50.084;18.440;2022-11-04T20:07:24;232.03;;;116.73;;
36271;SDS011;22311;50.084;18.440;2022-11-04T20:29:45;62.77;;;34.73;;
36271;SDS011;22311;50.084;18.440;2022-11-04T20:52:48;41.67;;;23.03;;
36271;SDS011;22311;50.084;18.440;2022-11-04T21:43:54;22.03;;;11.40;;
